Latest Weather Observations for Mount Crawford

IDS60801

Issued at 7:35 pm CDT Saturday 1 November 2014 (issued every 30 minutes, with the page automatically refreshed every 10 minutes)

About weather observations | Map of weather stations | Latest weather observations for SA | Other Formats
Station Details ID: 023878 Name: MT CRAWFORD AWS Lat: -34.73 Lon: 138.93 Height: 525.0 m
Data from the previous 72 hours. | See also: Recent months at Mount Crawford
Date/Time
CDT
Temp
°C
App
Temp
°C
Dew
Point
Rel
Hum
%
Delta-T
°C
Wind Press
QNH
hPa
Press
MSL
hPa
Rain
since 9 am
mm
Dir
 
Spd
km/h
Gust
km/h
Spd
kts
Gust
kts
01/07:30pm 9.6 4.3 -0.3 50 4.1 WSW 17 24 9 13 1019.9 1018.6 0.0
01/07:00pm 10.7 4.5 -0.4 46 4.6 WSW 22 33 12 18 1019.4 1018.0 0.0
01/06:30pm 11.7 5.6 0.2 45 4.9 WSW 22 35 12 19 1018.8 1017.5 0.0
01/06:00pm 12.2 4.9 0.3 44 5.1 WSW 28 43 15 23 1018.2 1016.9 0.0
01/05:47pm 12.6 5.2 -0.6 40 5.5 WSW 28 48 15 26 1018.0 1016.7 0.0
01/05:30pm 12.8 7.2 0.9 44 5.2 WSW 20 33 11 18 1017.9 1016.6 0.0
01/05:00pm 13.4 7.0 0.8 42 5.5 WSW 24 39 13 21 1017.5 1016.1 0.0
01/04:30pm 13.7 6.3 2.0 45 5.2 WSW 30 54 16 29 1017.3 1015.9 0.0
01/04:14pm 13.6 6.6 1.9 45 5.2 WSW 28 48 15 26 1016.7 1015.4 0.0
01/04:00pm 13.6 6.9 1.6 44 5.3 WSW 26 41 14 22 1016.9 1015.6 0.0
01/03:32pm 13.3 6.2 1.3 44 5.3 WSW 28 46 15 25 1016.5 1015.2 0.0
01/03:30pm 13.2 6.5 1.5 45 5.2 WSW 26 46 14 25 1016.4 1015.1 0.0
01/03:18pm 12.4 5.4 1.7 48 4.7 WSW 28 46 15 25 1016.4 1015.1 0.0
01/03:00pm 13.7 7.2 2.9 48 4.9 WSW 26 43 14 23 1016.5 1015.2 0.0
01/02:30pm 13.7 6.6 1.4 43 5.4 WSW 28 46 15 25 1016.4 1015.1 0.0
01/02:08pm 13.4 5.9 1.1 43 5.4 WSW 30 50 16 27 1016.0 1014.6 0.0
01/02:00pm 13.5 7.1 0.9 42 5.5 WSW 24 43 13 23 1016.2 1014.9 0.0
01/01:30pm 13.2 5.3 0.9 43 5.4 WSW 32 54 17 29 1016.1 1014.7 0.0
01/01:05pm 13.1 6.2 2.6 49 4.8 WSW 28 48 15 26 1015.8 1014.4 0.0
01/01:00pm 12.4 5.9 2.6 51 4.4 WSW 26 44 14 24 1016.1 1014.7 0.0
01/12:45pm 11.6 4.7 2.6 54 4.0 WSW 28 46 15 25 1015.7 1014.3 0.0
01/12:30pm 13.5 7.2 3.8 52 4.5 WSW 26 48 14 26 1015.8 1014.4 0.0
01/12:00pm 11.3 3.7 3.8 60 3.4 WSW 33 52 18 28 1015.5 1014.1 0.0
01/11:30am 11.5 3.9 4.0 60 3.5 SW 33 57 18 31 1015.5 1014.1 0.0
01/11:00am 11.9 3.8 3.4 56 3.9 WSW 35 56 19 30 1014.8 1013.5 0.0
01/10:30am 11.0 2.1 3.3 59 3.5 WSW 39 59 21 32 1014.4 1013.0 0.0
01/10:00am 10.5 1.7 3.8 63 3.0 WSW 39 57 21 31 1013.9 1013.3 0.0
01/09:30am 9.9 2.7 5.1 72 2.2 WSW 32 56 17 30 1013.6 1013.0 0.0
01/09:00am 10.5 4.1 6.8 78 1.8 WSW 30 52 16 28 1012.9 1012.3 2.0
01/08:30am 9.6 2.5 6.3 80 1.6 WSW 33 59 18 32 1012.4 1011.8 2.0
01/08:09am 9.3 2.4 6.4 82 1.4 WSW 32 54 17 29 1011.9 1011.3 2.0
01/08:00am 9.2 2.4 6.8 85 1.2 WSW 32 48 17 26 1012.0 1011.4 2.0
01/07:42am 8.9 2.7 6.3 84 1.2 WSW 28 52 15 28 1011.6 1010.9 2.0
01/07:30am 8.4 3.8 6.5 88 0.9 WSW 20 30 11 16 1011.7 1011.0 2.0
01/07:00am 8.0 2.8 5.5 84 1.2 WSW 22 44 12 24 1010.8 1010.2 2.0
01/06:30am 7.5 2.3 5.6 88 0.9 WSW 22 37 12 20 1010.4 1009.8 2.0
01/06:00am 7.7 2.6 6.2 90 0.7 WSW 22 35 12 19 1009.7 1009.0 2.0
01/05:32am 7.9 1.8 6.8 93 0.5 WSW 28 46 15 25 1009.1 1008.4 2.0
01/05:30am 8.1 1.6 6.7 91 0.7 WSW 30 46 16 25 1008.8 1008.2 2.0
01/05:00am 8.8 2.8 8.7 99 0.1 WSW 30 52 16 28 1008.3 1007.6 2.0
01/04:30am 9.2 2.4 9.2 100 0.0 WSW 35 57 19 31 1007.7 1007.0 2.0
01/04:00am 10.0 2.6 10.0 100 0.0 WSW 39 61 21 33 1007.1 1006.4 1.6
01/03:30am 10.5 4.6 10.5 100 0.0 W 32 56 17 30 1006.6 1005.9 1.2
01/03:21am 10.7 4.9 10.7 100 0.0 W 32 56 17 30 1006.5 1005.8 1.2
01/03:00am 10.6 5.5 10.6 100 0.0 W 28 41 15 22 1006.4 1005.7 0.6
01/02:30am 10.5 5.7 10.3 99 0.1 W 26 41 14 22 1006.6 1005.9 0.4
01/02:00am 10.8 5.8 10.8 100 0.0 WSW 28 43 15 23 1006.4 1005.7 0.4
01/01:32am 11.0 6.0 11.0 100 0.0 WSW 28 46 15 25 1006.3 1005.6 0.4
01/01:30am 11.1 6.5 11.1 100 0.0 W 26 37 14 20 1006.4 1005.7 0.4
01/01:00am 11.3 7.2 11.3 100 0.0 W 24 35 13 19 1006.4 1005.7 0.2
01/12:30am 11.5 7.4 11.3 99 0.1 W 24 32 13 17 1006.4 1005.7 0.2
01/12:00am 12.0 9.0 11.8 99 0.1 W 19 24 10 13 1006.2 1005.5 0.2
 
Date/Time
CDT
Temp
°C
App
Temp
°C
Dew
Point
Rel
Hum
%
Delta-T
°C
Wind Press
QNH
hPa
Press
MSL
hPa
Rain
since 9 am
mm
Dir
 
Spd
km/h
Gust
km/h
Spd
kts
Gust
kts
31/11:30pm 12.8 9.9 12.3 97 0.3 W 19 30 10 16 1006.5 1005.8 0.0
31/11:00pm 13.2 10.8 11.4 89 1.0 W 15 19 8 10 1005.7 1005.0 0.0
31/10:30pm 14.1 10.8 9.5 74 2.4 W 17 28 9 15 1005.8 1005.1 0.0
31/10:00pm 14.4 11.5 9.8 74 2.4 SW 15 24 8 13 1005.3 1004.6 0.0
31/09:30pm 14.3 10.1 12.3 88 1.1 WSW 26 35 14 19 1005.8 1005.1 0.0
31/09:01pm 14.4 9.6 12.8 90 0.9 WSW 30 48 16 26 1006.1 1005.4 0.0
31/09:00pm 14.4 9.2 12.8 90 0.9 WSW 32 48 17 26 1006.0 1005.3 0.0
31/08:42pm 14.4 10.0 14.2 99 0.1 W 30 48 16 26 1005.8 1005.1 0.0
31/08:30pm 14.5 10.0 13.7 95 0.5 W 30 44 16 24 1005.1 1004.3 0.0
31/08:00pm 15.8 11.7 11.4 75 2.4 W 24 33 13 18 1004.3 1003.6 0.0
31/07:30pm 18.6 13.9 9.1 54 5.1 WSW 24 35 13 19 1003.0 1002.2 0.0
31/07:00pm 20.2 15.3 8.5 47 6.3 WSW 24 35 13 19 1002.8 1002.1 0.0
31/06:30pm 21.8 16.2 7.2 39 7.8 WSW 26 37 14 20 1003.0 1002.2 0.0
31/06:00pm 22.9 18.7 5.8 33 8.9 WSW 17 24 9 13 1002.2 1001.5 0.0
31/05:30pm 24.0 18.8 5.4 30 9.7 WSW 22 33 12 18 1002.0 1001.3 0.0
31/05:00pm 25.5 19.7 4.6 26 10.8 WSW 24 35 13 19 1001.6 1000.8 0.0
31/04:30pm 29.6 24.1 2.0 17 14.0 WSW 20 32 11 17 1001.4 1000.6 0.0
31/04:06pm 29.5 22.4 1.1 16 14.1 WSW 28 46 15 25 1001.4 1000.6 0.0
31/04:00pm 29.6 22.6 2.0 17 13.9 W 28 44 15 24 1001.6 1000.8 0.0
31/03:30pm 29.3 21.8 0.9 16 14.1 W 30 41 16 22 1001.9 1001.2 0.0
31/03:00pm 29.3 20.9 1.7 17 13.9 W 35 57 19 31 1002.3 1001.6 0.0
31/02:30pm 29.8 20.6 1.3 16 14.3 W 39 59 21 32 1002.6 1001.9 0.0
31/02:00pm 30.5 21.5 2.7 17 14.3 W 39 57 21 31 1002.6 1001.9 0.0
31/01:30pm 30.6 22.0 2.8 17 14.4 WNW 37 59 20 32 1003.3 1002.5 0.0
31/01:00pm 30.2 22.0 2.5 17 14.2 NW 35 57 19 31 1003.8 1003.1 0.0
31/12:40pm 30.0 21.5 0.6 15 14.5 WNW 35 54 19 29 1004.1 1003.4 0.0
31/12:30pm 30.2 22.2 0.7 15 14.7 NW 32 43 17 23 1004.3 1003.6 0.0
31/12:15pm 29.3 20.8 0.9 16 14.1 NW 35 54 19 29 1004.5 1003.8 0.0
31/12:00pm 29.2 20.7 0.8 16 14.1 NNW 35 46 19 25 1004.8 1004.1 0.0
31/11:30am 29.2 22.0 0.8 16 14.1 N 28 41 15 22 1005.7 1005.0 0.0
31/11:15am 27.0 19.8 0.7 18 12.8 N 28 46 15 25 1006.0 1005.3 0.0
31/11:00am 27.1 19.5 0.8 18 12.8 N 30 44 16 24 1006.1 1005.4 0.0
31/10:30am 25.9 19.2 1.2 20 12.0 NNE 26 33 14 18 1006.3 1005.6 0.0
31/10:00am 24.6 16.7 0.8 21 11.4 NNE 32 41 17 22 1006.7 1006.0 0.0
31/09:30am 24.3 17.1 0.6 21 11.3 NE 28 43 15 23 1007.1 1006.4 0.0
31/09:00am 22.9 15.4 1.3 24 10.3 NE 30 43 16 23 1007.4 1006.7 0.0
31/08:30am 21.8 13.8 1.5 26 9.7 NE 33 46 18 25 1007.5 1006.8 0.0
31/08:00am 20.9 13.9 2.2 29 8.9 NE 28 41 15 22 1007.7 1007.0 0.0
31/07:30am 18.9 11.1 1.4 31 8.1 NE 32 43 17 23 1007.7 1007.0 0.0
31/07:00am 17.1 10.2 2.3 37 6.9 NE 28 37 15 20 1007.8 1007.1 0.0
31/06:30am 16.4 8.8 3.1 41 6.3 ENE 32 44 17 24 1007.9 1007.2 0.0
31/06:00am 15.5 8.8 3.9 46 5.5 ENE 28 37 15 20 1008.0 1007.3 0.0
31/05:30am 15.8 8.7 3.6 44 5.8 ENE 30 39 16 21 1008.4 1007.8 0.0
31/05:00am 16.1 8.7 3.9 44 5.8 ENE 32 37 17 20 1008.6 1008.0 0.0
31/04:30am 16.0 9.1 4.4 46 5.6 ENE 30 37 16 20 1009.1 1008.4 0.0
31/04:00am 16.0 9.6 5.0 48 5.4 ENE 28 37 15 20 1009.2 1008.5 0.0
31/03:30am 15.0 9.3 6.6 57 4.2 E 26 35 14 19 1009.4 1008.7 0.0
31/03:00am 15.2 9.8 6.5 56 4.4 E 24 32 13 17 1009.6 1008.9 0.0
31/02:30am 14.5 9.3 7.3 62 3.6 E 24 30 13 16 1009.7 1009.0 0.0
31/02:00am 15.2 10.4 7.2 59 4.1 E 22 28 12 15 1010.5 1009.9 0.0
31/01:30am 15.3 10.4 7.1 58 4.2 E 22 30 12 16 1010.9 1010.3 0.0
31/01:00am 15.1 10.1 7.9 62 3.7 E 24 28 13 15 1011.3 1010.6 0.0
31/12:30am 14.9 10.3 8.2 64 3.5 ESE 22 26 12 14 1011.8 1011.2 0.0
31/12:00am 14.7 10.5 8.2 65 3.4 E 20 24 11 13 1012.2 1011.6 0.0
 
Date/Time
CDT
Temp
°C
App
Temp
°C
Dew
Point
Rel
Hum
%
Delta-T
°C
Wind Press
QNH
hPa
Press
MSL
hPa
Rain
since 9 am
mm
Dir
 
Spd
km/h
Gust
km/h
Spd
kts
Gust
kts
30/11:30pm 15.7 10.6 7.5 58 4.2 ESE 24 26 13 14 1012.4 1011.8 0.0
30/11:00pm 15.8 11.6 7.3 57 4.3 ESE 19 20 10 11 1012.8 1012.2 0.0
30/10:30pm 16.3 12.7 8.5 60 4.1 E 17 20 9 11 1013.2 1012.5 0.0
30/10:00pm 16.2 12.9 9.4 64 3.6 ESE 17 19 9 10 1013.5 1012.9 0.0
30/09:30pm 17.2 14.5 9.1 59 4.3 SE 13 15 7 8 1013.7 1013.1 0.0
30/09:00pm 16.7 13.9 9.9 64 3.7 SE 15 17 8 9 1013.4 1012.8 0.0
30/08:30pm 16.5 14.0 9.7 64 3.7 SE 13 17 7 9 1013.1 1012.4 0.0
30/08:00pm 18.6 16.9 8.3 51 5.5 SSE 7 11 4 6 1012.8 1012.2 0.0
30/07:30pm 19.9 17.5 7.0 43 6.7 SW 9 11 5 6 1012.8 1012.2 0.0
30/07:00pm 22.4 19.8 6.2 35 8.4 W 9 13 5 7 1012.6 1012.0 0.0
30/06:30pm 23.5 19.7 -5.5 14 12.2 ENE 6 9 3 5 1012.7 1012.1 0.0
30/06:00pm 24.3 20.6 -4.9 14 12.5 NE 6 7 3 4 1012.9 1012.3 0.0
30/05:30pm 25.0 19.8 -6.3 12 13.2 W 13 19 7 10 1013.2 1012.5 0.0
30/05:00pm 25.6 21.0 -3.8 14 13.0 W 11 17 6 9 1013.3 1012.6 0.0
30/04:30pm 25.7 21.8 -1.2 17 12.5 WSW 9 15 5 8 1013.2 1012.5 0.0
30/04:00pm 24.7 20.9 -0.4 19 11.7 W 9 19 5 10 1013.4 1012.8 0.0
30/03:30pm 24.1 19.4 1.1 22 11.0 WNW 15 19 8 10 1013.7 1013.1 0.0
30/03:00pm 23.6 19.1 -0.6 20 11.2 W 13 19 7 10 1014.0 1013.4 0.0
30/02:30pm 24.6 20.6 2.7 24 10.8 WSW 13 24 7 13 1014.3 1013.7 0.0
30/02:00pm 23.9 19.0 2.1 24 10.6 WNW 17 24 9 13 1014.6 1014.0 0.0
30/01:30pm 23.0 18.3 0.8 23 10.5 W 15 22 8 12 1014.8 1014.2 0.0
30/01:00pm 22.5 18.3 3.6 29 9.4 W 15 22 8 12 1015.1 1014.5 0.0
30/12:30pm 22.2 18.5 4.3 31 9.0 NW 13 20 7 11 1015.4 1014.8 0.0
30/12:00pm 19.7 15.6 4.2 36 7.6 NW 15 24 8 13 1015.8 1015.2 0.0
30/11:30am 19.5 16.0 5.6 40 7.0 NW 13 19 7 10 1016.2 1015.6 0.0
30/11:00am 18.9 15.7 7.0 46 6.2 NW 13 17 7 9 1016.3 1015.7 0.0
30/10:30am 17.1 14.5 9.3 60 4.2 N 13 19 7 10 1016.2 1015.6 0.0
30/10:00am 15.4 13.6 9.5 68 3.1 NE 9 15 5 8 1016.2 1015.6 0.0
30/09:30am 13.4 11.7 10.0 80 1.8 E 9 13 5 7 1016.4 1015.8 0.0
30/09:00am 11.8 9.4 10.2 90 0.8 SE 13 17 7 9 1016.8 1016.3 0.2
30/08:30am 12.4 12.1 11.3 93 0.6 S 4 9 2 5 1016.6 1016.1 0.2
30/08:00am 10.3 8.7 10.1 99 0.1 WNW 9 13 5 7 1016.2 1015.6 0.2
30/07:30am 8.4 5.5 8.3 99 0.0 ENE 13 15 7 8 1015.7 1015.1 0.2
30/07:00am 9.3 6.3 9.3 100 0.0 E 15 19 8 10 1015.8 1015.2 0.2
30/06:30am 8.6 5.4 8.6 100 0.0 E 15 17 8 9 1015.1 1014.5 0.2
30/06:00am 8.7 5.9 8.6 99 0.0 ESE 13 15 7 8 1015.6 1015.0 0.2
30/05:30am 9.0 7.1 8.9 99 0.1 E 9 13 5 7 1015.7 1015.1 0.2
30/05:00am 9.2 7.3 9.1 99 0.1 E 9 11 5 6 1015.4 1014.8 0.2
30/04:30am 9.1 7.2 9.0 99 0.1 E 9 11 5 6 1015.3 1014.7 0.2
30/04:00am 9.1 6.8 9.1 100 0.0 ESE 11 13 6 7 1015.2 1014.6 0.2
30/03:30am 9.0 6.3 9.0 100 0.0 ESE 13 13 7 7 1015.2 1014.6 0.2
30/03:00am 9.0 6.7 9.0 100 0.0 ESE 11 13 6 7 1015.4 1014.8 0.2
30/02:30am 9.2 6.6 9.2 100 0.0 ESE 13 15 7 8 1015.5 1014.9 0.2
30/02:00am 9.3 6.7 9.3 100 0.0 ESE 13 15 7 8 1016.2 1015.6 0.2
30/01:30am 9.7 7.2 9.7 100 0.0 ESE 13 17 7 9 1016.2 1015.6 0.2
30/01:00am 10.0 7.2 10.0 100 0.0 ESE 15 20 8 11 1016.8 1016.3 0.2
30/12:30am 10.1 6.9 9.9 99 0.1 SE 17 20 9 11 1016.9 1016.4 0.2
30/12:00am 10.2 7.8 10.0 99 0.1 ESE 13 17 7 9 1017.1 1016.5 0.2
 
Date/Time
CDT
Temp
°C
App
Temp
°C
Dew
Point
Rel
Hum
%
Delta-T
°C
Wind Press
QNH
hPa
Press
MSL
hPa
Rain
since 9 am
mm
Dir
 
Spd
km/h
Gust
km/h
Spd
kts
Gust
kts
29/11:30pm 10.3 7.1 10.1 99 0.1 SE 17 20 9 11 1017.2 1016.6 0.2
29/11:00pm 10.5 7.4 10.3 99 0.1 SE 17 20 9 11 1017.3 1016.7 0.2
29/10:30pm 10.6 7.5 10.4 99 0.1 SE 17 22 9 12 1017.4 1016.8 0.2
29/10:00pm 10.8 7.6 10.0 95 0.4 SE 17 20 9 11 1017.3 1016.7 0.2
29/09:30pm 12.0 9.4 9.4 84 1.3 ESE 13 17 7 9 1017.4 1016.8 0.2
29/09:00pm 15.0 12.1 6.3 56 4.3 S 11 13 6 7 1017.2 1016.6 0.2
29/08:30pm 14.9 11.8 5.4 53 4.6 SSW 11 15 6 8 1017.3 1016.7 0.2
29/08:00pm 15.3 11.8 7.1 58 4.2 SSW 15 19 8 10 1017.3 1016.7 0.2

Other Formats:

Comma delimited format used in spreadsheet applications
http://www.bom.gov.au/fwo/IDS60801/IDS60801.94678.axf

JavaScript Object Notation format (JSON) in row-major order
http://www.bom.gov.au/fwo/IDS60801/IDS60801.94678.json